Time;durP1;ratioP1;P1;durP2;ratioP2;P2;SDS_P1;SDS_P2;PMS_P1;PMS_P2;Temp;Humidity;BMP_temperature;BMP_pressure;BME280_temperature;BME280_humidity;BME280_pressure;Samples;Min_cycle;Max_cycle;Signal;HPM_P1;HPM_P2
2022/02/07 00:01:43;;;;;;;10.93;3.10;;;3.00;89.20;;;;;;5041413;28;20706;-92
2022/02/07 00:04:17;;;;;;;9.07;2.67;;;3.00;89.00;;;;;;5062178;28;20162;-94
2022/02/07 00:06:43;;;;;;;15.10;3.37;;;3.10;87.90;;;;;;5051655;28;20197;-94
2022/02/07 00:09:12;;;;;;;10.90;2.80;;;3.20;87.60;;;;;;5053103;28;20171;-95
2022/02/07 00:11:44;;;;;;;7.10;2.97;;;3.20;87.40;;;;;;5051861;28;20335;-94
2022/02/07 00:14:15;;;;;;;13.20;3.00;;;3.00;87.40;;;;;;5053517;28;20176;-94
2022/02/07 00:16:44;;;;;;;12.17;3.60;;;2.80;88.00;;;;;;5056059;28;20211;-94
2022/02/07 00:19:19;;;;;;;9.57;3.83;;;2.80;88.30;;;;;;5058227;28;20271;-94
2022/02/07 00:21:46;;;;;;;11.60;3.33;;;2.80;88.70;;;;;;5058995;28;20296;-94
2022/02/07 00:24:18;;;;;;;4.80;2.50;;;2.80;88.90;;;;;;5060624;28;20191;-94
2022/02/07 00:26:44;;;;;;;11.97;3.13;;;2.80;88.70;;;;;;5054075;28;20187;-94
2022/02/07 00:29:18;;;;;;;9.23;3.43;;;2.80;88.80;;;;;;5052811;28;20190;-94
2022/02/07 00:31:44;;;;;;;9.10;3.47;;;2.80;88.90;;;;;;5052157;28;20247;-94
2022/02/07 00:34:15;;;;;;;9.03;2.70;;;2.70;89.20;;;;;;5053500;28;20179;-94
2022/02/07 00:36:41;;;;;;;17.00;3.93;;;2.80;89.00;;;;;;5050861;28;20191;-95
2022/02/07 00:39:26;;;;;;;11.17;3.20;;;2.80;88.80;;;;;;5050675;28;20178;-94
2022/02/07 00:42:22;;;;;;;7.67;3.20;;;2.90;88.70;;;;;;5047458;28;20577;-94
2022/02/07 00:44:38;;;;;;;11.60;3.47;;;2.80;88.90;;;;;;5063349;28;20552;-94
2022/02/07 00:47:10;;;;;;;10.47;3.63;;;2.80;89.30;;;;;;5046070;28;20171;-94
2022/02/07 00:49:36;;;;;;;12.57;4.00;;;2.80;89.50;;;;;;5051168;28;20243;-94
2022/02/07 00:52:05;;;;;;;12.37;3.60;;;2.80;89.50;;;;;;5056061;28;20199;-95
2022/02/07 00:54:30;;;;;;;12.73;4.10;;;2.80;89.60;;;;;;5053300;28;20263;-94
2022/02/07 00:56:56;;;;;;;13.97;3.87;;;2.80;89.70;;;;;;5054341;28;20195;-94
2022/02/07 00:59:27;;;;;;;10.13;3.80;;;2.80;89.80;;;;;;5056227;28;20170;-95
2022/02/07 01:01:53;;;;;;;20.07;4.57;;;2.80;89.90;;;;;;5058114;28;20211;-94
2022/02/07 01:04:22;;;;;;;15.93;4.70;;;2.80;90.00;;;;;;5053940;28;20248;-95
2022/02/07 01:06:48;;;;;;;11.63;5.43;;;2.80;90.10;;;;;;5049033;28;20191;-94
2022/02/07 01:17:43;;;;;;;23.40;5.33;;;2.90;90.70;;;;;;5060889;28;20153;-94
2022/02/07 01:47:41;;;;;;;14.87;5.10;;;3.00;91.70;;;;;;5069662;28;20167;-94
2022/02/07 01:57:54;;;;;;;14.90;5.27;;;3.00;91.80;;;;;;5060617;28;20174;-94
2022/02/07 02:00:19;;;;;;;14.53;4.30;;;3.00;91.70;;;;;;5040922;28;20179;-92
2022/02/07 02:02:48;;;;;;;13.20;3.70;;;3.00;91.60;;;;;;5061694;28;20164;-94
2022/02/07 02:05:17;;;;;;;11.70;3.83;;;3.00;91.40;;;;;;5044036;28;20172;-95
2022/02/07 02:07:44;;;;;;;13.27;3.80;;;3.00;91.30;;;;;;5045250;28;20294;-94
2022/02/07 02:10:10;;;;;;;13.27;3.90;;;2.90;91.00;;;;;;5041338;28;20198;-94
2022/02/07 02:12:47;;;;;;;10.97;3.83;;;2.90;90.70;;;;;;5042489;28;20196;-95
2022/02/07 02:15:39;;;;;;;12.67;4.03;;;3.00;90.70;;;;;;5039720;28;20535;-94
2022/02/07 02:45:39;;;;;;;11.57;3.33;;;2.90;90.60;;;;;;5055963;28;20169;-93
2022/02/07 02:48:08;;;;;;;7.70;3.80;;;2.90;90.60;;;;;;5037107;28;20179;-94
2022/02/07 02:50:36;;;;;;;8.43;3.90;;;2.90;90.70;;;;;;5037892;28;20626;-94
2022/02/07 02:53:08;;;;;;;16.63;5.33;;;2.90;90.80;;;;;;5038012;28;20176;-93
2022/02/07 02:55:36;;;;;;;13.43;7.20;;;2.90;91.10;;;;;;5037440;28;20183;-94
2022/02/07 02:58:04;;;;;;;9.40;4.33;;;3.00;91.20;;;;;;5037662;28;20175;-93
2022/02/07 03:00:30;;;;;;;5.63;4.03;;;3.00;91.30;;;;;;5037793;28;20183;-94
2022/02/07 03:02:56;;;;;;;16.43;5.73;;;3.00;91.40;;;;;;5037989;28;20226;-94
2022/02/07 03:05:21;;;;;;;8.80;4.30;;;3.00;91.60;;;;;;5054783;28;20176;-94
2022/02/07 03:07:47;;;;;;;26.60;5.63;;;3.00;91.80;;;;;;5056194;28;20191;-94
2022/02/07 03:10:23;;;;;;;18.33;5.83;;;3.00;92.00;;;;;;5038422;28;20176;-94
2022/02/07 03:13:13;;;;;;;22.97;5.63;;;3.00;92.20;;;;;;5039833;28;20179;-94
2022/02/07 03:18:25;;;;;;;13.10;4.70;;;3.00;92.20;;;;;;5056540;28;20217;-93
2022/02/07 03:20:51;;;;;;;19.80;5.00;;;3.00;92.20;;;;;;5039712;28;20212;-94
2022/02/07 03:23:17;;;;;;;18.00;5.23;;;3.00;92.20;;;;;;5037926;28;20172;-94
2022/02/07 03:25:43;;;;;;;20.20;5.10;;;3.00;92.20;;;;;;5037730;28;20179;-94
2022/02/07 03:28:09;;;;;;;15.70;5.50;;;3.00;92.20;;;;;;5037620;28;20172;-95
2022/02/07 03:30:35;;;;;;;20.87;4.93;;;3.00;92.20;;;;;;5037625;28;20172;-94
2022/02/07 03:33:01;;;;;;;12.37;4.90;;;3.00;92.20;;;;;;5037231;28;20178;-94
2022/02/07 03:35:27;;;;;;;10.87;3.93;;;3.00;92.20;;;;;;5038565;28;20215;-93
2022/02/07 03:37:52;;;;;;;13.50;4.43;;;2.90;92.10;;;;;;5037850;28;20272;-94
2022/02/07 03:40:18;;;;;;;5.73;3.60;;;2.90;92.10;;;;;;5037533;28;20207;-93
2022/02/07 03:42:44;;;;;;;7.97;3.80;;;2.90;92.20;;;;;;5037401;28;20192;-93
2022/02/07 03:45:10;;;;;;;8.40;3.47;;;2.80;92.10;;;;;;5039063;28;20179;-94
2022/02/07 03:47:36;;;;;;;9.57;4.07;;;2.80;92.20;;;;;;5038143;28;20171;-93
2022/02/07 03:50:04;;;;;;;6.37;3.40;;;2.80;92.00;;;;;;5038223;28;20179;-94
2022/02/07 03:52:30;;;;;;;5.63;3.77;;;2.70;92.00;;;;;;5037771;28;20211;-94
2022/02/07 03:54:56;;;;;;;7.37;3.70;;;2.70;91.90;;;;;;5037614;28;20176;-93
2022/02/07 03:57:21;;;;;;;12.63;3.40;;;2.70;91.90;;;;;;5038529;28;20180;-94
2022/02/07 03:59:48;;;;;;;5.43;3.70;;;2.70;91.80;;;;;;5039211;28;20206;-94
2022/02/07 04:02:14;;;;;;;4.47;3.30;;;2.60;91.90;;;;;;5055338;28;20215;-94
2022/02/07 04:04:42;;;;;;;6.43;3.40;;;2.70;91.90;;;;;;5041459;28;20171;-94
2022/02/07 04:07:09;;;;;;;8.27;3.50;;;2.70;91.90;;;;;;5038720;28;20280;-94
2022/02/07 04:09:41;;;;;;;10.50;3.67;;;2.70;91.90;;;;;;5039414;28;20176;-94
2022/02/07 04:12:13;;;;;;;11.13;3.77;;;2.70;91.90;;;;;;5038851;28;20211;-94
2022/02/07 04:14:39;;;;;;;4.77;3.07;;;2.70;91.90;;;;;;5039251;28;20167;-94
2022/02/07 04:17:07;;;;;;;12.30;3.47;;;2.70;92.00;;;;;;5038517;28;20243;-93
2022/02/07 04:19:35;;;;;;;8.50;3.63;;;2.70;92.00;;;;;;5039467;28;20180;-94
2022/02/07 04:22:03;;;;;;;13.60;3.90;;;2.80;92.10;;;;;;5039409;28;20207;-94
2022/02/07 04:24:29;;;;;;;12.60;3.77;;;2.80;92.10;;;;;;5039341;28;20177;-94
2022/02/07 04:26:55;;;;;;;9.90;3.77;;;2.80;92.10;;;;;;5057178;28;20164;-94
2022/02/07 04:29:21;;;;;;;11.27;3.53;;;2.90;92.20;;;;;;5039041;28;20176;-94
2022/02/07 04:31:47;;;;;;;10.53;3.30;;;2.80;92.20;;;;;;5039217;28;20673;-94
2022/02/07 04:34:12;;;;;;;13.83;3.87;;;2.90;92.20;;;;;;5059220;28;20257;-93
2022/02/07 04:36:41;;;;;;;14.43;4.00;;;2.90;92.20;;;;;;5041540;28;20176;-93
2022/02/07 04:39:07;;;;;;;17.67;3.73;;;2.90;92.20;;;;;;5060102;28;20257;-93
2022/02/07 04:41:33;;;;;;;15.03;4.50;;;2.90;92.40;;;;;;5042933;28;20689;-94
2022/02/07 04:44:03;;;;;;;15.00;4.20;;;2.90;92.20;;;;;;5041904;28;20187;-94
2022/02/07 04:46:42;;;;;;;12.83;4.63;;;3.10;92.30;;;;;;5042616;28;20172;-93
2022/02/07 04:59:03;;;;;;;16.97;6.80;;;3.50;92.00;;;;;;5060164;28;20172;-94
2022/02/07 05:01:50;;;;;;;12.03;3.53;;;3.50;92.10;;;;;;5041988;28;20747;-93
2022/02/07 05:04:25;;;;;;;20.77;4.20;;;3.50;91.90;;;;;;5041461;28;20249;-93
2022/02/07 05:15:04;;;;;;;25.97;4.90;;;3.80;91.40;;;;;;5059425;28;20217;-94
2022/02/07 05:17:31;;;;;;;20.90;4.20;;;3.80;91.20;;;;;;5041347;28;20172;-93
2022/02/07 05:19:57;;;;;;;26.83;4.37;;;3.80;91.00;;;;;;5058084;28;20168;-94
2022/02/07 05:22:22;;;;;;;15.80;4.10;;;3.80;90.80;;;;;;5041669;28;20215;-93
2022/02/07 05:24:48;;;;;;;24.53;4.07;;;3.90;90.50;;;;;;5060470;28;20169;-94
2022/02/07 05:27:13;;;;;;;17.37;4.03;;;3.90;90.10;;;;;;5058783;28;20176;-93
2022/02/07 05:29:39;;;;;;;16.97;4.47;;;3.90;90.10;;;;;;5042738;28;20618;-94
2022/02/07 05:32:05;;;;;;;12.70;3.93;;;4.00;89.80;;;;;;5041328;28;20199;-93
2022/02/07 05:34:31;;;;;;;21.33;4.50;;;4.00;89.60;;;;;;5039090;28;20189;-94
2022/02/07 05:36:57;;;;;;;17.37;4.27;;;3.90;89.70;;;;;;5039708;28;20552;-93
2022/02/07 05:39:26;;;;;;;11.00;3.20;;;4.00;89.60;;;;;;5040440;28;20237;-93
2022/02/07 05:41:51;;;;;;;19.63;4.40;;;4.00;89.40;;;;;;5040097;28;20299;-93
2022/02/07 05:44:17;;;;;;;29.53;4.70;;;4.00;89.00;;;;;;5057530;28;20215;-93
2022/02/07 05:46:43;;;;;;;16.57;4.20;;;4.00;88.70;;;;;;5057991;28;20186;-92
2022/02/07 05:49:08;;;;;;;23.23;4.13;;;4.10;88.50;;;;;;5040311;28;20560;-93
2022/02/07 05:51:34;;;;;;;28.77;4.90;;;4.10;87.90;;;;;;5039878;28;20576;-93
2022/02/07 05:54:00;;;;;;;16.63;5.00;;;4.00;88.20;;;;;;5041141;28;20191;-93
2022/02/07 05:56:25;;;;;;;22.03;5.80;;;4.00;88.30;;;;;;5039802;28;20184;-93
2022/02/07 05:58:51;;;;;;;20.43;4.70;;;4.00;88.50;;;;;;5039680;28;20203;-93
2022/02/07 06:01:16;;;;;;;23.60;4.83;;;3.90;88.80;;;;;;5040699;28;20220;-93
2022/02/07 06:03:42;;;;;;;35.23;6.60;;;3.90;89.00;;;;;;5058578;28;20259;-93
2022/02/07 06:06:08;;;;;;;24.97;5.53;;;3.90;89.20;;;;;;5039148;28;20172;-93
2022/02/07 06:08:33;;;;;;;22.43;5.00;;;3.90;89.10;;;;;;5040133;28;20283;-93
2022/02/07 06:11:01;;;;;;;23.13;4.97;;;3.90;89.00;;;;;;5040324;28;20203;-93
2022/02/07 06:13:27;;;;;;;24.63;4.50;;;3.90;88.30;;;;;;5040019;28;20191;-94
2022/02/07 06:15:52;;;;;;;23.67;4.50;;;3.90;87.70;;;;;;5038821;28;20185;-93
2022/02/07 06:18:19;;;;;;;14.83;3.80;;;3.90;87.20;;;;;;5037988;28;20664;-92
2022/02/07 06:20:47;;;;;;;24.73;5.13;;;3.90;86.80;;;;;;5038610;28;20669;-93
2022/02/07 06:23:13;;;;;;;17.67;4.13;;;3.90;86.60;;;;;;5037545;28;20184;-93
2022/02/07 06:25:38;;;;;;;22.33;5.63;;;4.00;86.40;;;;;;5037483;28;20243;-93
2022/02/07 06:28:04;;;;;;;25.67;4.60;;;3.90;86.40;;;;;;5037767;28;20200;-92
2022/02/07 06:30:30;;;;;;;20.80;4.60;;;4.00;85.90;;;;;;5037592;28;20168;-91
2022/02/07 06:32:55;;;;;;;29.87;5.50;;;4.10;85.80;;;;;;5038263;28;20187;-92
2022/02/07 06:35:21;;;;;;;29.93;6.60;;;4.20;85.60;;;;;;5037006;28;20457;-92
2022/02/07 06:37:46;;;;;;;26.77;5.10;;;4.20;85.60;;;;;;5040038;28;20239;-92
2022/02/07 06:40:12;;;;;;;27.83;5.13;;;4.10;86.20;;;;;;5037428;28;20195;-91
2022/02/07 06:42:38;;;;;;;20.07;5.20;;;4.10;86.10;;;;;;5037109;28;20247;-92
2022/02/07 06:45:04;;;;;;;30.27;5.43;;;4.10;85.80;;;;;;5054386;28;20198;-93
2022/02/07 06:47:30;;;;;;;25.03;5.33;;;4.10;85.30;;;;;;5036725;28;20651;-92
2022/02/07 06:49:55;;;;;;;25.93;5.33;;;3.90;86.00;;;;;;5036596;28;20211;-92
2022/02/07 06:52:21;;;;;;;25.10;4.93;;;3.90;85.50;;;;;;5036524;28;20200;-92
2022/02/07 06:54:47;;;;;;;24.20;4.80;;;3.90;85.40;;;;;;5037509;28;20536;-92
2022/02/07 06:57:15;;;;;;;28.13;5.73;;;3.90;85.30;;;;;;5036623;28;20299;-93
2022/02/07 06:59:42;;;;;;;35.53;6.00;;;3.90;85.30;;;;;;5036441;28;20649;-91
2022/02/07 07:02:11;;;;;;;41.53;6.87;;;3.90;85.90;;;;;;5036682;28;20595;-92
2022/02/07 07:04:37;;;;;;;26.67;5.77;;;3.80;86.10;;;;;;5054329;28;20175;-92
2022/02/07 07:07:03;;;;;;;33.60;6.63;;;3.80;86.20;;;;;;5054055;28;20184;-92
2022/02/07 07:09:30;;;;;;;26.17;5.80;;;3.80;86.40;;;;;;5054202;28;20575;-92
2022/02/07 07:12:02;;;;;;;32.50;5.83;;;3.80;86.40;;;;;;5036241;28;20196;-93
2022/02/07 07:14:31;;;;;;;39.00;6.93;;;3.80;86.40;;;;;;5036613;28;20197;-93
2022/02/07 07:16:58;;;;;;;35.27;6.20;;;3.80;86.60;;;;;;5036598;28;20649;-92
2022/02/07 07:19:26;;;;;;;20.70;4.50;;;3.80;86.40;;;;;;5054413;28;20165;-92
2022/02/07 07:21:53;;;;;;;23.60;3.50;;;3.90;85.40;;;;;;5036507;28;20208;-92
2022/02/07 07:24:18;;;;;;;26.03;4.67;;;4.00;85.00;;;;;;5036699;28;20168;-92
2022/02/07 07:26:45;;;;;;;20.17;4.53;;;4.20;83.40;;;;;;5035925;28;20175;-92
2022/02/07 07:29:19;;;;;;;36.90;6.03;;;4.30;83.70;;;;;;5036699;28;20172;-93
2022/02/07 07:31:50;;;;;;;31.77;5.60;;;4.30;83.30;;;;;;5037551;28;20199;-92
2022/02/07 07:34:17;;;;;;;18.40;5.07;;;4.30;82.80;;;;;;5054320;28;20149;-93
2022/02/07 07:36:44;;;;;;;21.97;4.00;;;4.20;83.20;;;;;;5036510;28;20172;-92
2022/02/07 07:39:12;;;;;;;32.37;5.53;;;4.10;83.30;;;;;;5036202;28;20183;-92
2022/02/07 07:41:42;;;;;;;26.13;4.70;;;4.00;83.50;;;;;;5054159;28;20219;-92
2022/02/07 07:44:08;;;;;;;27.13;5.47;;;3.90;83.90;;;;;;5038813;28;20168;-92
2022/02/07 07:46:34;;;;;;;26.93;5.30;;;3.90;84.40;;;;;;5038772;28;20233;-90
2022/02/07 07:49:05;;;;;;;22.63;4.83;;;3.90;84.90;;;;;;5036474;28;20180;-92
2022/02/07 07:51:41;;;;;;;17.10;4.23;;;3.90;85.00;;;;;;5037746;28;20249;-93
2022/02/07 08:02:23;;;;;;;24.57;5.67;;;3.80;86.20;;;;;;5053449;28;20753;-92
2022/02/07 08:04:49;;;;;;;30.87;6.10;;;4.00;85.00;;;;;;5035640;28;20266;-91
2022/02/07 08:09:59;;;;;;;31.90;6.20;;;4.00;85.10;;;;;;5056927;28;20172;-92
2022/02/07 08:12:26;;;;;;;30.43;5.73;;;4.10;85.00;;;;;;5057056;28;20192;-92
2022/02/07 08:14:52;;;;;;;31.10;7.50;;;4.10;85.00;;;;;;5039003;28;20186;-92
2022/02/07 08:17:21;;;;;;;38.50;6.33;;;4.30;84.60;;;;;;5056798;28;20548;-92
2022/02/07 08:19:50;;;;;;;30.37;6.20;;;4.30;84.60;;;;;;5039146;28;20191;-92
2022/02/07 08:22:16;;;;;;;29.80;5.93;;;4.30;84.90;;;;;;5039169;28;20369;-92
2022/02/07 08:24:43;;;;;;;35.90;8.03;;;4.30;85.00;;;;;;5057490;28;20689;-92
2022/02/07 08:27:09;;;;;;;36.17;6.60;;;4.30;84.70;;;;;;5039268;28;20176;-92
2022/02/07 08:29:35;;;;;;;36.17;7.83;;;4.40;84.80;;;;;;5038946;28;20176;-92
2022/02/07 08:32:01;;;;;;;41.83;6.73;;;4.40;85.10;;;;;;5038880;28;20208;-92
2022/02/07 08:34:27;;;;;;;33.70;6.90;;;4.50;85.40;;;;;;5039060;28;20268;-93
2022/02/07 08:36:53;;;;;;;39.27;6.87;;;4.50;85.70;;;;;;5057196;28;20192;-93
2022/02/07 08:39:19;;;;;;;31.63;5.60;;;4.60;85.50;;;;;;5057251;28;20172;-92
2022/02/07 08:41:45;;;;;;;40.13;7.43;;;4.60;85.50;;;;;;5057321;28;20682;-93
2022/02/07 08:44:10;;;;;;;36.13;6.30;;;4.60;85.30;;;;;;5039132;28;20626;-93
2022/02/07 08:46:36;;;;;;;45.37;7.70;;;4.60;85.20;;;;;;5038702;28;20184;-93
2022/02/07 08:49:03;;;;;;;55.03;9.43;;;4.60;85.30;;;;;;5039711;28;20623;-92
2022/02/07 08:51:32;;;;;;;44.97;8.53;;;4.70;85.00;;;;;;5060208;28;20200;-93
2022/02/07 08:54:06;;;;;;;36.63;6.93;;;4.80;84.80;;;;;;5045923;28;20192;-94
2022/02/07 08:56:47;;;;;;;28.63;5.67;;;4.70;85.50;;;;;;5048747;28;20175;-93
2022/02/07 08:59:13;;;;;;;14.13;4.07;;;4.40;82.50;;;;;;5042636;28;20153;-92
2022/02/07 09:01:51;;;;;;;25.40;4.33;;;4.30;79.60;;;;;;5043832;28;20212;-93
2022/02/07 09:07:18;;;;;;;22.07;4.43;;;4.10;82.80;;;;;;5060633;28;20245;-93
2022/02/07 09:09:45;;;;;;;20.27;4.47;;;4.20;83.50;;;;;;5046410;28;20536;-93
2022/02/07 09:12:12;;;;;;;18.53;5.53;;;4.30;82.80;;;;;;5063072;28;20195;-93
2022/02/07 09:14:44;;;;;;;28.90;7.37;;;4.30;83.00;;;;;;5045223;28;20180;-94
2022/02/07 09:17:11;;;;;;;27.97;4.83;;;4.30;82.60;;;;;;5046895;28;20203;-94
2022/02/07 09:19:37;;;;;;;31.47;5.60;;;4.30;83.00;;;;;;5043545;28;20176;-94
2022/02/07 09:22:04;;;;;;;33.20;5.50;;;4.30;83.00;;;;;;5047355;28;20205;-94
2022/02/07 09:24:31;;;;;;;27.03;5.17;;;4.30;83.30;;;;;;5047683;28;20170;-93
2022/02/07 09:26:56;;;;;;;28.90;5.73;;;4.40;83.20;;;;;;5051380;28;20176;-93
2022/02/07 09:29:22;;;;;;;22.97;4.73;;;4.50;82.20;;;;;;5046625;28;20226;-94
2022/02/07 09:31:48;;;;;;;30.00;4.70;;;4.60;81.60;;;;;;5065867;28;20211;-94
2022/02/07 09:34:14;;;;;;;22.27;4.70;;;4.70;81.80;;;;;;5046922;28;20184;-93
2022/02/07 09:36:42;;;;;;;24.93;5.87;;;4.70;82.00;;;;;;5068203;28;20226;-93
2022/02/07 09:39:08;;;;;;;21.40;5.03;;;4.80;81.80;;;;;;5048729;28;20563;-94
2022/02/07 09:41:35;;;;;;;13.77;4.50;;;4.90;81.60;;;;;;5049141;28;20223;-94
2022/02/07 09:44:09;;;;;;;19.77;4.30;;;5.00;81.20;;;;;;5068755;28;20237;-94
2022/02/07 09:46:52;;;;;;;20.97;5.10;;;5.00;81.80;;;;;;5068839;28;20158;-93
2022/02/07 09:49:22;;;;;;;18.60;5.30;;;5.20;81.20;;;;;;5056590;28;20172;-94
2022/02/07 09:51:49;;;;;;;29.73;6.30;;;5.30;80.90;;;;;;5071405;28;20193;-94
2022/02/07 09:54:19;;;;;;;27.27;5.43;;;5.40;81.40;;;;;;5050794;28;20182;-94
2022/02/07 09:56:47;;;;;;;28.67;6.80;;;5.30;81.20;;;;;;5068151;28;20222;-93
2022/02/07 09:59:17;;;;;;;29.80;5.83;;;5.40;80.10;;;;;;5050852;28;20221;-93
2022/02/07 10:01:49;;;;;;;23.30;5.23;;;5.20;80.90;;;;;;5051284;28;20220;-94
2022/02/07 10:04:26;;;;;;;29.33;6.37;;;5.10;81.30;;;;;;5046078;28;20182;-93
2022/02/07 10:06:59;;;;;;;31.00;6.67;;;5.10;82.30;;;;;;5045928;28;20192;-93
2022/02/07 10:12:09;;;;;;;22.40;6.27;;;5.10;83.40;;;;;;5063537;28;20270;-93
2022/02/07 10:14:49;;;;;;;9.40;4.30;;;5.30;82.40;;;;;;5046790;28;20189;-92
2022/02/07 10:37:46;;;;;;;29.37;4.93;;;6.10;78.40;;;;;;5057424;28;20183;-93
2022/02/07 10:40:11;;;;;;;18.20;4.30;;;6.10;78.90;;;;;;5055379;28;20209;-93
2022/02/07 10:46:03;;;;;;;25.00;5.00;;;6.30;78.70;;;;;;5055533;28;20161;-92
2022/02/07 10:48:37;;;;;;;27.40;6.83;;;6.20;77.50;;;;;;5037451;28;20195;-93
2022/02/07 10:51:19;;;;;;;27.97;5.47;;;6.00;77.30;;;;;;5038941;28;20225;-93
2022/02/07 10:53:49;;;;;;;24.50;4.67;;;6.10;77.50;;;;;;5039932;28;20179;-93
2022/02/07 10:56:18;;;;;;;29.63;5.37;;;6.20;75.80;;;;;;5038977;28;20221;-93
2022/02/07 10:58:45;;;;;;;20.03;4.17;;;6.20;75.50;;;;;;5038688;28;20186;-93
2022/02/07 11:03:45;;;;;;;24.47;4.57;;;6.40;75.70;;;;;;5058578;28;20171;-93
2022/02/07 11:06:14;;;;;;;30.63;4.30;;;6.10;74.60;;;;;;5040048;28;20183;-92
2022/02/07 11:16:54;;;;;;;19.83;4.13;;;5.80;75.10;;;;;;5055020;28;20217;-92
2022/02/07 11:22:14;;;;;;;18.67;4.20;;;6.30;75.90;;;;;;5056735;28;20219;-93
2022/02/07 11:27:51;;;;;;;14.57;4.23;;;6.10;75.90;;;;;;5061424;28;20237;-92
2022/02/07 11:30:19;;;;;;;17.67;4.70;;;6.20;77.20;;;;;;5044727;28;20229;-93
2022/02/07 11:32:56;;;;;;;19.10;3.77;;;6.30;76.80;;;;;;5044378;28;20202;-93
2022/02/07 11:35:30;;;;;;;23.90;5.00;;;6.40;77.30;;;;;;5045408;28;20189;-93
2022/02/07 11:38:04;;;;;;;21.33;4.90;;;6.00;78.30;;;;;;5043487;28;20171;-93
2022/02/07 11:40:56;;;;;;;22.97;5.77;;;5.60;79.80;;;;;;5042665;28;20181;-93
2022/02/07 11:43:24;;;;;;;22.37;4.33;;;5.40;81.00;;;;;;5043080;28;20179;-94
2022/02/07 11:45:56;;;;;;;22.67;4.13;;;5.50;80.10;;;;;;5048755;28;20175;-93
2022/02/07 11:48:33;;;;;;;17.93;4.03;;;5.80;81.00;;;;;;5043834;28;20180;-92
2022/02/07 11:51:13;;;;;;;14.87;3.87;;;5.80;80.70;;;;;;5060869;28;20198;-93
2022/02/07 11:53:46;;;;;;;16.33;3.97;;;6.00;79.80;;;;;;5045325;28;20205;-92
2022/02/07 11:56:24;;;;;;;13.70;3.90;;;6.20;79.70;;;;;;5047063;28;20250;-94
2022/02/07 11:59:28;;;;;;;9.40;2.90;;;6.20;78.70;;;;;;5046609;28;20180;-93
2022/02/07 12:02:02;;;;;;;17.23;4.57;;;6.20;78.10;;;;;;5063164;28;20214;-93
2022/02/07 12:04:45;;;;;;;21.03;5.07;;;6.30;78.50;;;;;;5044918;28;20179;-93
2022/02/07 12:07:11;;;;;;;18.50;5.13;;;6.40;78.10;;;;;;5044175;28;20204;-91
2022/02/07 12:13:01;;;;;;;25.03;4.90;;;6.60;78.30;;;;;;5074792;28;20210;-93
2022/02/07 12:15:38;;;;;;;18.40;4.70;;;6.60;78.10;;;;;;5052416;28;20176;-93
2022/02/07 12:18:13;;;;;;;22.00;4.30;;;6.70;77.00;;;;;;5052519;28;20175;-93
2022/02/07 12:21:05;;;;;;;26.53;3.97;;;6.70;76.00;;;;;;5056660;28;20259;-94
2022/02/07 12:23:34;;;;;;;21.97;4.67;;;6.80;75.40;;;;;;5061475;28;20186;-94
2022/02/07 12:26:11;;;;;;;28.83;5.20;;;6.80;74.80;;;;;;5061248;28;20160;-94
2022/02/07 12:28:49;;;;;;;26.77;4.83;;;7.00;75.30;;;;;;5057572;28;20535;-92
2022/02/07 12:31:20;;;;;;;23.57;4.70;;;6.80;75.40;;;;;;5038967;28;20272;-91
2022/02/07 12:34:04;;;;;;;17.97;4.27;;;6.70;76.50;;;;;;5038393;28;20263;-90
2022/02/07 12:36:32;;;;;;;21.67;4.13;;;6.70;76.50;;;;;;5038506;28;20176;-90
2022/02/07 12:39:06;;;;;;;34.87;4.63;;;6.70;75.10;;;;;;5039402;28;20229;-91
2022/02/07 12:41:40;;;;;;;38.90;6.83;;;6.80;75.00;;;;;;5040418;28;20203;-93
2022/02/07 12:44:08;;;;;;;19.90;4.93;;;6.80;75.20;;;;;;5040782;28;20180;-93
2022/02/07 12:46:44;;;;;;;24.30;4.33;;;6.80;75.70;;;;;;5041465;28;20172;-93
2022/02/07 12:49:13;;;;;;;26.27;4.40;;;6.60;75.60;;;;;;5042514;28;20168;-92
2022/02/07 12:51:46;;;;;;;11.23;4.10;;;6.10;77.90;;;;;;5057689;28;20238;-93
2022/02/07 12:54:14;;;;;;;12.37;3.40;;;5.70;80.70;;;;;;5041224;28;20175;-92
2022/02/07 12:56:40;;;;;;;12.03;3.43;;;5.00;82.70;;;;;;5040486;28;20321;-93
2022/02/07 12:59:07;;;;;;;10.30;3.07;;;4.70;84.50;;;;;;5040672;28;20181;-93
2022/02/07 13:01:39;;;;;;;13.13;3.20;;;4.60;85.30;;;;;;5040791;28;20216;-93
2022/02/07 13:04:08;;;;;;;12.70;3.23;;;4.70;84.50;;;;;;5040391;28;20186;-93
2022/02/07 13:06:49;;;;;;;25.53;4.10;;;4.80;84.30;;;;;;5040613;28;20603;-93
2022/02/07 13:09:39;;;;;;;19.03;4.37;;;5.00;83.60;;;;;;5038685;28;20268;-92
2022/02/07 13:14:45;;;;;;;26.73;5.77;;;4.90;82.80;;;;;;5056952;28;20170;-93
2022/02/07 13:17:11;;;;;;;12.90;3.60;;;5.10;83.80;;;;;;5058426;28;20168;-93
2022/02/07 13:20:04;;;;;;;14.30;3.27;;;5.30;82.60;;;;;;5040696;28;20212;-93
2022/02/07 13:22:33;;;;;;;16.03;4.07;;;5.30;81.20;;;;;;5039062;28;20202;-93
2022/02/07 13:25:01;;;;;;;15.60;3.23;;;5.60;81.90;;;;;;5041917;28;20171;-93
2022/02/07 13:27:27;;;;;;;9.97;2.93;;;5.70;79.80;;;;;;5043341;28;20178;-93
2022/02/07 13:29:56;;;;;;;15.13;3.43;;;5.90;78.70;;;;;;5042490;28;20244;-94
2022/02/07 13:32:26;;;;;;;16.87;4.80;;;5.80;78.50;;;;;;5039904;28;20205;-92
2022/02/07 13:35:04;;;;;;;21.27;3.67;;;6.10;79.10;;;;;;5039049;28;20210;-92
2022/02/07 13:37:37;;;;;;;18.87;3.60;;;6.10;77.70;;;;;;5045879;28;20542;-93
2022/02/07 13:40:24;;;;;;;17.00;4.23;;;6.20;77.40;;;;;;5064860;28;20262;-93
2022/02/07 13:42:51;;;;;;;20.97;3.90;;;6.40;78.40;;;;;;5037631;28;20199;-93
2022/02/07 13:45:24;;;;;;;20.57;4.83;;;6.30;77.20;;;;;;5037602;28;20179;-93
2022/02/07 13:47:55;;;;;;;26.60;4.00;;;6.40;78.00;;;;;;5037935;28;20198;-92
2022/02/07 13:50:23;;;;;;;18.60;4.70;;;6.50;77.40;;;;;;5041132;28;20528;-93
2022/02/07 13:52:54;;;;;;;17.80;3.83;;;6.50;76.40;;;;;;5038417;28;20258;-92
2022/02/07 13:55:22;;;;;;;23.93;4.60;;;6.40;75.70;;;;;;5038476;28;20194;-92
2022/02/07 13:58:03;;;;;;;23.47;4.17;;;6.50;76.70;;;;;;5037606;28;20218;-93
2022/02/07 14:00:31;;;;;;;15.13;3.87;;;6.60;76.90;;;;;;5037223;28;20590;-93
2022/02/07 14:03:27;;;;;;;15.13;3.90;;;6.60;76.40;;;;;;5037546;28;20204;-93
2022/02/07 14:05:57;;;;;;;26.03;5.37;;;6.50;75.90;;;;;;5054249;28;20152;-92
2022/02/07 14:08:35;;;;;;;17.67;5.33;;;6.50;76.60;;;;;;5055127;28;20191;-93
2022/02/07 14:11:11;;;;;;;26.40;5.10;;;6.60;76.10;;;;;;5037202;28;20206;-92
2022/02/07 14:13:38;;;;;;;24.63;5.53;;;6.60;76.50;;;;;;5038078;28;20192;-93
2022/02/07 14:16:05;;;;;;;28.07;4.90;;;6.70;75.20;;;;;;5037203;28;20210;-92
2022/02/07 14:18:32;;;;;;;29.43;5.13;;;6.70;75.70;;;;;;5037575;28;20176;-93
2022/02/07 14:21:00;;;;;;;23.63;5.80;;;6.60;75.00;;;;;;5036967;28;20192;-93
2022/02/07 14:23:28;;;;;;;25.53;6.53;;;6.60;74.80;;;;;;5037450;28;20182;-93
2022/02/07 14:25:59;;;;;;;35.67;6.13;;;6.60;74.80;;;;;;5037121;28;20656;-92
2022/02/07 14:28:26;;;;;;;33.87;7.93;;;6.60;75.90;;;;;;5036807;28;20172;-93
2022/02/07 14:30:51;;;;;;;28.00;12.33;;;6.50;76.90;;;;;;5036664;28;20200;-93
2022/02/07 14:33:17;;;;;;;35.80;9.20;;;6.40;77.30;;;;;;5036647;28;20550;-92
2022/02/07 14:35:43;;;;;;;32.97;8.07;;;6.20;78.20;;;;;;5036630;28;20310;-92
2022/02/07 14:38:09;;;;;;;16.97;4.83;;;5.90;80.30;;;;;;5036235;28;20217;-92
2022/02/07 14:40:37;;;;;;;16.97;4.13;;;5.60;82.20;;;;;;5036470;28;20267;-92
2022/02/07 14:43:04;;;;;;;22.03;4.30;;;5.30;81.40;;;;;;5036424;28;20583;-92
2022/02/07 14:45:36;;;;;;;20.73;3.87;;;5.20;81.40;;;;;;5036879;28;20182;-92
2022/02/07 14:48:03;;;;;;;12.57;2.90;;;5.00;80.60;;;;;;5037369;28;20165;-92
2022/02/07 14:50:29;;;;;;;14.87;3.63;;;5.00;78.50;;;;;;5036898;28;20186;-92
2022/02/07 14:52:56;;;;;;;21.10;4.53;;;5.00;78.80;;;;;;5036320;28;20186;-93
2022/02/07 14:55:23;;;;;;;15.27;3.37;;;4.90;80.60;;;;;;5036545;28;20172;-91
2022/02/07 14:57:49;;;;;;;10.93;2.77;;;4.60;82.90;;;;;;5036138;28;20182;-92
2022/02/07 15:00:18;;;;;;;19.87;3.67;;;4.40;84.70;;;;;;5036592;28;20202;-92
2022/02/07 15:02:45;;;;;;;14.70;3.90;;;4.20;85.50;;;;;;5036366;28;20204;-92
2022/02/07 15:05:12;;;;;;;19.80;3.97;;;4.20;86.10;;;;;;5037405;28;20196;-93
2022/02/07 15:07:38;;;;;;;17.77;4.00;;;4.20;86.20;;;;;;5045290;28;20204;-93
2022/02/07 15:10:06;;;;;;;15.83;3.60;;;4.30;85.60;;;;;;5040923;28;20194;-93
2022/02/07 15:12:33;;;;;;;19.47;4.03;;;4.30;84.90;;;;;;5037548;28;20196;-91
2022/02/07 15:14:59;;;;;;;18.83;3.97;;;4.30;84.20;;;;;;5039127;28;20245;-92
2022/02/07 15:17:28;;;;;;;8.03;3.17;;;4.40;81.40;;;;;;5038692;28;20271;-92
2022/02/07 15:20:02;;;;;;;15.27;3.87;;;4.50;80.60;;;;;;5042227;28;20177;-91
2022/02/07 15:22:31;;;;;;;16.10;3.63;;;4.50;81.20;;;;;;5041735;28;20203;-93
2022/02/07 15:25:00;;;;;;;13.50;3.27;;;4.30;82.80;;;;;;5044758;28;20587;-93
2022/02/07 15:27:28;;;;;;;21.23;4.40;;;4.30;83.30;;;;;;5043341;28;20167;-94
2022/02/07 15:29:55;;;;;;;11.90;3.70;;;4.30;83.00;;;;;;5043431;28;20184;-93
2022/02/07 15:34:51;;;;;;;12.77;2.93;;;4.50;80.40;;;;;;5067092;28;20181;-94
2022/02/07 15:37:27;;;;;;;24.93;4.53;;;4.60;79.80;;;;;;5049679;28;20171;-94